createdAt,value
2018-01-25T10:07:22.369Z,41.87
2018-01-25T10:08:22.670Z,40.71
2018-01-25T10:10:16.744Z,39.45
2018-01-25T10:12:30.440Z,39.36
2018-01-25T10:13:30.630Z,39.36
2018-01-25T10:15:24.273Z,39.26
2018-01-25T10:16:24.570Z,39.36
2018-01-25T10:18:51.045Z,41.39
2018-01-25T10:19:51.334Z,39.26
2018-01-25T10:21:45.409Z,39.45
2018-01-25T10:22:45.703Z,39.16
2018-01-25T10:25:00.018Z,39.45
2018-01-25T10:25:39.176Z,39.64
2018-01-25T10:27:32.681Z,39.64
2018-01-25T10:28:33.016Z,40.81
2018-01-25T10:30:29.246Z,39.74
2018-01-25T10:32:03.095Z,39.28
2018-01-25T10:33:03.360Z,39.47
2018-01-25T10:34:56.762Z,39.86
2018-01-25T10:35:57.080Z,39.28
2018-01-25T10:37:51.976Z,39.16
2018-01-25T10:38:51.805Z,39.36
2018-01-25T10:40:45.383Z,39.36
2018-01-25T10:41:45.654Z,40.42
2018-01-25T10:46:30.427Z,39.47
2018-01-25T10:47:30.789Z,39.47
2018-01-25T10:49:26.849Z,40.92
2018-01-25T10:50:24.176Z,40.15
2018-01-25T10:51:49.941Z,39.47
2018-01-25T10:52:49.963Z,38.99
2018-01-25T10:54:43.003Z,39.67
2018-01-25T10:55:43.016Z,39.47
2018-01-25T10:58:08.803Z,39.64
2018-01-25T10:59:08.832Z,39.74
2018-01-25T11:01:01.806Z,39.64
2018-01-25T11:02:01.838Z,39.74
2018-01-25T11:04:55.639Z,40.42
2018-01-25T11:08:03.311Z,40.23
2018-01-25T11:09:03.350Z,39.55
2018-01-25T11:10:56.291Z,39.84
2018-01-25T11:11:56.325Z,39.74
2018-01-25T11:13:49.686Z,39.64
2018-01-25T11:14:49.792Z,39.36
2018-01-25T11:16:42.285Z,39.64
2018-01-25T11:17:42.362Z,39.64
2018-01-25T11:19:35.334Z,39.55
2018-01-25T11:20:35.359Z,39.43
2018-01-25T11:22:28.301Z,39.45
2018-01-25T11:23:28.370Z,39.45
2018-01-25T11:28:15.064Z,39.53
2018-01-25T11:29:15.129Z,39.55
2018-01-25T11:31:08.916Z,39.43
2018-01-25T11:32:08.922Z,39.62
2018-01-25T11:34:02.190Z,39.43
2018-01-25T11:35:02.218Z,39.43
2018-01-25T11:36:55.802Z,39.72
2018-01-25T11:39:48.654Z,39.72
2018-01-25T11:40:48.736Z,39.72
2018-01-25T11:42:41.992Z,40.40
2018-01-25T11:43:42.029Z,41.17
2018-01-25T11:45:35.467Z,41.94
2018-01-25T11:46:35.521Z,41.58
2018-01-25T11:48:29.262Z,42.83
2018-01-25T11:49:28.116Z,40.03
2018-01-25T11:50:28.186Z,41.77
2018-01-25T11:52:21.081Z,42.25
2018-01-25T11:53:53.640Z,41.77
2018-01-25T11:54:53.683Z,40.30
2018-01-25T11:57:47.161Z,40.88
2018-01-25T11:59:40.407Z,40.98
2018-01-25T12:00:40.456Z,41.58
2018-01-25T12:02:33.682Z,41.46
2018-01-25T12:03:33.743Z,41.48
2018-01-25T12:05:26.708Z,41.29
2018-01-25T12:06:26.755Z,41.27
2018-01-25T12:08:19.670Z,42.83
2018-01-25T12:10:14.093Z,41.48
2018-01-25T12:13:07.110Z,43.03
2018-01-25T12:14:07.175Z,41.58
2018-01-25T12:16:00.892Z,41.09
2018-01-25T12:17:00.938Z,41.67
2018-01-25T12:21:48.185Z,41.00
2018-01-25T12:22:48.244Z,40.90
2018-01-25T12:27:14.425Z,41.27
2018-01-25T12:29:33.322Z,41.36
2018-01-25T12:30:07.676Z,41.17
2018-01-25T12:32:00.622Z,41.85
2018-01-25T12:33:00.840Z,43.13
